createdAt,value
2023-04-08T00:02:29.652Z,89.50
2023-04-08T00:05:38.116Z,89.31
2023-04-08T00:08:46.570Z,88.66
2023-04-08T00:11:53.330Z,88.26
2023-04-08T00:14:59.244Z,88.05
2023-04-08T00:18:06.328Z,88.15
2023-04-08T00:21:12.459Z,87.84
2023-04-08T00:24:24.887Z,87.71
2023-04-08T00:27:31.118Z,87.36
2023-04-08T00:30:38.561Z,86.93
2023-04-08T00:33:46.579Z,86.98
2023-04-08T00:36:53.513Z,87.02
2023-04-08T00:40:02.019Z,86.71
2023-04-08T00:43:08.888Z,86.71
2023-04-08T00:46:15.235Z,86.85
2023-04-08T00:49:22.455Z,87.12
2023-04-08T00:52:28.265Z,87.15
2023-04-08T00:55:37.700Z,87.48
2023-04-08T00:58:44.062Z,86.98
2023-04-08T01:02:02.748Z,87.18
2023-04-08T01:05:16.443Z,86.83
2023-04-08T01:08:28.481Z,86.44
2023-04-08T01:11:41.699Z,85.44
2023-04-08T01:14:55.038Z,85.21
2023-04-08T01:18:04.849Z,85.30
2023-04-08T01:21:14.813Z,85.34
2023-04-08T01:24:32.704Z,85.47
2023-04-08T01:27:46.376Z,85.18
2023-04-08T01:30:54.878Z,85.71
2023-04-08T01:34:06.888Z,85.41
2023-04-08T01:37:14.210Z,85.58
2023-04-08T01:40:27.068Z,85.83
2023-04-08T01:43:39.543Z,85.40
2023-04-08T01:46:49.309Z,85.53
2023-04-08T01:49:58.288Z,85.40
2023-04-08T01:53:09.460Z,85.45
2023-04-08T01:56:18.841Z,85.77
2023-04-08T01:59:39.452Z,85.57
2023-04-08T02:02:50.489Z,85.63
2023-04-08T02:05:58.236Z,85.70
2023-04-08T02:09:06.048Z,85.65
2023-04-08T02:12:12.745Z,85.21
2023-04-08T02:15:21.335Z,85.60
2023-04-08T02:18:32.039Z,85.33
2023-04-08T02:21:50.570Z,85.35
2023-04-08T02:24:57.399Z,85.50
2023-04-08T02:28:09.209Z,85.47
2023-04-08T02:31:22.527Z,85.47
2023-04-08T02:34:30.169Z,85.60
2023-04-08T02:37:39.746Z,85.64
2023-04-08T02:40:46.144Z,85.53
2023-04-08T02:43:55.841Z,84.76
2023-04-08T02:47:04.448Z,84.98
2023-04-08T02:50:15.001Z,85.40
2023-04-08T02:53:21.082Z,85.34
2023-04-08T02:56:27.854Z,85.80
2023-04-08T02:59:33.682Z,86.01
2023-04-08T03:02:43.179Z,85.98
2023-04-08T03:05:49.306Z,85.81
2023-04-08T03:08:56.015Z,85.60
2023-04-08T03:12:02.023Z,85.90
2023-04-08T03:15:10.450Z,85.77
2023-04-08T03:18:22.382Z,85.78
2023-04-08T03:21:32.012Z,86.56
2023-04-08T03:24:37.831Z,86.41
2023-04-08T03:27:44.685Z,86.33
2023-04-08T03:30:52.630Z,86.11
2023-04-08T03:34:02.062Z,85.60
2023-04-08T03:37:08.016Z,85.87
2023-04-08T03:40:16.438Z,86.32
2023-04-08T03:43:22.618Z,85.94
2023-04-08T03:46:29.434Z,85.96
2023-04-08T03:49:38.127Z,86.17
2023-04-08T03:52:44.865Z,85.96
2023-04-08T03:55:53.785Z,86.13
2023-04-08T03:59:00.926Z,85.84
2023-04-08T04:02:06.941Z,85.46
2023-04-08T04:05:16.287Z,85.32
2023-04-08T04:08:22.619Z,85.54
2023-04-08T04:11:29.473Z,85.14
2023-04-08T04:14:35.521Z,84.87
2023-04-08T04:17:42.279Z,84.73
2023-04-08T04:20:50.787Z,84.63
2023-04-08T04:23:57.668Z,84.17
2023-04-08T04:27:03.620Z,84.54
2023-04-08T04:30:15.814Z,84.36
2023-04-08T04:33:22.299Z,84.55
2023-04-08T04:36:32.380Z,84.67
2023-04-08T04:39:38.378Z,84.95
2023-04-08T04:42:45.175Z,84.45
2023-04-08T04:45:51.107Z,84.68
2023-04-08T04:48:57.907Z,84.57
2023-04-08T04:52:06.325Z,84.70
2023-04-08T04:55:15.481Z,83.74
2023-04-08T04:58:21.773Z,83.37
2023-04-08T05:01:29.288Z,83.09
2023-04-08T05:04:35.398Z,83.23
2023-04-08T05:07:45.021Z,83.22
2023-04-08T05:10:51.167Z,83.58
2023-04-08T05:13:57.839Z,83.42
2023-04-08T05:17:03.773Z,83.37
2023-04-08T05:20:12.105Z,82.69
2023-04-08T05:23:20.788Z,82.06
2023-04-08T05:26:27.516Z,82.42
2023-04-08T05:29:36.437Z,82.36
2023-04-08T05:32:43.447Z,81.81
2023-04-08T05:35:49.767Z,81.78
2023-04-08T05:38:59.814Z,81.53
2023-04-08T05:42:06.884Z,80.74
2023-04-08T05:45:14.492Z,80.02
2023-04-08T05:48:20.417Z,80.48
2023-04-08T05:51:27.132Z,80.46
2023-04-08T05:54:35.933Z,79.65
2023-04-08T05:57:42.936Z,79.49
2023-04-08T06:00:50.197Z,79.68
2023-04-08T06:03:57.237Z,78.33
2023-04-08T06:07:04.747Z,77.46
2023-04-08T06:10:15.014Z,77.39
2023-04-08T06:13:22.284Z,77.87
2023-04-08T06:16:28.981Z,78.23
2023-04-08T06:19:35.149Z,78.23
2023-04-08T06:22:42.044Z,78.62
2023-04-08T06:25:50.614Z,78.69
2023-04-08T06:28:59.587Z,77.08
2023-04-08T06:32:10.346Z,76.76
2023-04-08T06:35:18.395Z,75.35
2023-04-08T06:38:24.288Z,72.96
2023-04-08T06:41:33.832Z,71.40
2023-04-08T06:44:53.973Z,71.31
2023-04-08T06:48:00.862Z,69.39
2023-04-08T06:51:08.173Z,69.54
2023-04-08T06:54:14.965Z,69.66
2023-04-08T06:57:23.588Z,68.74
2023-04-08T07:00:30.628Z,67.54
2023-04-08T07:03:36.753Z,67.76
2023-04-08T07:06:43.509Z,67.02
2023-04-08T07:09:49.441Z,66.81
2023-04-08T07:12:58.814Z,65.03
2023-04-08T07:16:04.899Z,61.49
2023-04-08T07:19:12.130Z,61.23
2023-04-08T07:22:18.788Z,60.39
2023-04-08T07:25:25.667Z,60.00
2023-04-08T07:28:37.749Z,59.05
2023-04-08T07:31:46.397Z,56.76
2023-04-08T07:34:52.272Z,56.25
2023-04-08T07:37:59.219Z,53.73
2023-04-08T07:41:05.363Z,52.47
2023-04-08T07:44:17.429Z,53.50
2023-04-08T07:47:23.581Z,52.92
2023-04-08T07:50:30.396Z,52.44
2023-04-08T07:53:36.595Z,51.30
2023-04-08T07:56:44.856Z,49.55
2023-04-08T07:59:53.709Z,49.51
2023-04-08T08:03:01.392Z,49.28
2023-04-08T08:06:16.720Z,49.58
2023-04-08T08:09:23.519Z,48.09
2023-04-08T08:12:29.455Z,48.75
2023-04-08T08:15:38.884Z,45.94
2023-04-08T08:18:45.034Z,45.88
2023-04-08T08:21:52.593Z,45.08
2023-04-08T08:25:07.618Z,45.42
2023-04-08T08:28:14.792Z,46.44
2023-04-08T08:31:23.406Z,44.63
2023-04-08T08:34:30.224Z,46.95
2023-04-08T08:37:36.066Z,46.25
2023-04-08T08:40:43.508Z,45.90
2023-04-08T08:43:51.769Z,45.32
2023-04-08T08:47:01.620Z,43.74
2023-04-08T08:50:08.658Z,41.43
2023-04-08T08:53:15.726Z,41.32
2023-04-08T08:56:22.157Z,42.03
2023-04-08T08:59:28.935Z,41.49
2023-04-08T09:02:37.673Z,42.84
2023-04-08T09:05:52.689Z,43.33
2023-04-08T09:09:01.898Z,41.91
2023-04-08T09:12:17.022Z,42.83
2023-04-08T09:15:24.051Z,41.52
2023-04-08T09:18:33.926Z,42.07
2023-04-08T09:21:54.485Z,41.43
2023-04-08T09:25:27.433Z,42.41
2023-04-08T09:28:41.668Z,41.79
2023-04-08T09:31:58.970Z,39.97
2023-04-08T09:35:12.103Z,38.85
2023-04-08T09:38:19.016Z,40.49
2023-04-08T09:41:36.877Z,41.20
2023-04-08T09:44:50.331Z,40.59
2023-04-08T09:48:08.285Z,39.26
2023-04-08T09:51:22.317Z,39.07
2023-04-08T09:54:47.294Z,37.75
2023-04-08T09:58:08.684Z,40.09
2023-04-08T10:01:32.515Z,40.14
2023-04-08T10:04:47.412Z,42.01
2023-04-08T10:07:56.510Z,40.46
2023-04-08T10:11:04.072Z,40.75
2023-04-08T10:14:22.437Z,40.81
2023-04-08T10:17:36.409Z,40.47
2023-04-08T10:20:47.953Z,41.63
2023-04-08T10:24:06.671Z,42.45
2023-04-08T10:27:43.993Z,44.49
2023-04-08T10:30:52.383Z,45.02
2023-04-08T10:33:58.440Z,44.40
2023-04-08T10:37:06.855Z,44.39
2023-04-08T10:40:22.701Z,43.70
2023-04-08T10:43:29.737Z,41.09
2023-04-08T10:46:41.776Z,40.92
2023-04-08T10:49:50.610Z,41.11
2023-04-08T10:52:59.803Z,41.02
2023-04-08T10:56:15.511Z,40.77
2023-04-08T10:59:37.227Z,41.04
2023-04-08T11:02:44.484Z,40.19
2023-04-08T11:05:52.301Z,43.78
2023-04-08T11:09:01.709Z,46.18
2023-04-08T11:12:10.933Z,47.10
2023-04-08T11:15:18.616Z,48.25
2023-04-08T11:18:26.430Z,49.82
2023-04-08T11:21:34.920Z,50.41
2023-04-08T11:24:41.574Z,50.11
2023-04-08T11:27:53.924Z,50.80
2023-04-08T11:31:09.229Z,49.38
2023-04-08T11:34:26.254Z,50.45
2023-04-08T11:37:41.391Z,50.04
2023-04-08T11:40:57.306Z,49.71
2023-04-08T11:44:11.441Z,49.74
2023-04-08T11:47:18.244Z,49.79
2023-04-08T11:50:35.613Z,50.33
2023-04-08T11:53:48.238Z,49.90
2023-04-08T11:56:56.495Z,51.05
2023-04-08T12:00:06.472Z,50.29
2023-04-08T12:03:17.063Z,49.70
2023-04-08T12:06:30.728Z,49.51
2023-04-08T12:09:36.999Z,50.40
2023-04-08T12:12:44.503Z,50.14
2023-04-08T12:15:53.334Z,50.47
2023-04-08T12:19:00.140Z,51.25
2023-04-08T12:22:06.333Z,50.85
2023-04-08T12:25:13.664Z,51.98
2023-04-08T12:28:19.597Z,52.18
2023-04-08T12:31:28.990Z,53.41
2023-04-08T12:34:35.623Z,54.53
2023-04-08T12:37:44.386Z,54.77
2023-04-08T12:40:50.374Z,55.62
2023-04-08T12:43:57.069Z,55.66
2023-04-08T12:47:12.115Z,56.56
2023-04-08T12:50:23.884Z,57.35
2023-04-08T12:53:30.197Z,57.14
2023-04-08T12:56:36.971Z,57.33
2023-04-08T12:59:43.040Z,57.85
2023-04-08T13:02:52.465Z,58.76
2023-04-08T13:05:59.336Z,59.18
2023-04-08T13:09:10.335Z,59.96
2023-04-08T13:12:16.590Z,61.37
2023-04-08T13:15:23.604Z,62.81
2023-04-08T13:18:32.311Z,63.66
2023-04-08T13:21:39.267Z,64.40
2023-04-08T13:24:45.420Z,64.15
2023-04-08T13:27:52.274Z,64.53
2023-04-08T13:31:01.233Z,64.82
2023-04-08T13:34:17.214Z,65.46
2023-04-08T13:37:23.263Z,65.45
2023-04-08T13:40:30.668Z,66.80
2023-04-08T13:43:39.492Z,67.04
2023-04-08T13:46:46.559Z,66.65
2023-04-08T13:50:01.768Z,66.45
2023-04-08T13:53:10.394Z,66.83
2023-04-08T13:56:16.602Z,66.83
2023-04-08T13:59:31.405Z,66.30
2023-04-08T14:02:40.849Z,65.88
2023-04-08T14:05:56.449Z,66.02
2023-04-08T14:09:02.351Z,65.69
2023-04-08T14:12:09.252Z,65.07
2023-04-08T14:15:16.485Z,65.11
2023-04-08T14:18:23.501Z,65.66
2023-04-08T14:21:32.136Z,65.35
2023-04-08T14:24:49.247Z,65.27
2023-04-08T14:27:58.777Z,65.42
2023-04-08T14:31:07.018Z,65.20
2023-04-08T14:34:15.097Z,65.41
2023-04-08T14:37:24.826Z,65.78
2023-04-08T14:40:33.562Z,65.96
2023-04-08T14:43:43.254Z,66.48
2023-04-08T14:46:51.063Z,66.42
2023-04-08T14:49:58.025Z,66.94
2023-04-08T14:53:06.834Z,67.56
2023-04-08T14:56:14.135Z,67.59
2023-04-08T14:59:23.161Z,67.81
2023-04-08T15:02:34.091Z,67.85
2023-04-08T15:05:43.076Z,68.37
2023-04-08T15:08:53.962Z,68.65
2023-04-08T15:12:00.380Z,68.24
2023-04-08T15:15:11.594Z,68.43
2023-04-08T15:18:28.815Z,68.77
2023-04-08T15:21:36.624Z,68.90
2023-04-08T15:24:48.599Z,68.63
2023-04-08T15:27:55.537Z,68.91
2023-04-08T15:31:04.233Z,68.58
2023-04-08T15:34:11.230Z,68.56
2023-04-08T15:37:20.585Z,67.46
2023-04-08T15:40:30.082Z,67.72
2023-04-08T15:43:39.477Z,68.13
2023-04-08T15:46:46.754Z,68.21
2023-04-08T15:49:56.119Z,67.71
2023-04-08T15:53:09.771Z,68.12
2023-04-08T15:56:22.965Z,68.46
2023-04-08T15:59:32.763Z,69.03
2023-04-08T16:02:39.191Z,69.23
2023-04-08T16:05:47.563Z,68.98
2023-04-08T16:08:53.450Z,68.87
2023-04-08T16:12:05.405Z,69.00
2023-04-08T16:15:13.953Z,68.70
2023-04-08T16:18:24.386Z,68.31
2023-04-08T16:21:30.856Z,68.47
2023-04-08T16:24:39.550Z,68.33
2023-04-08T16:27:49.399Z,68.20
2023-04-08T16:30:56.361Z,68.32
2023-04-08T16:34:08.793Z,68.73
2023-04-08T16:37:16.736Z,68.83
2023-04-08T16:40:25.024Z,69.29
2023-04-08T16:43:34.820Z,69.01
2023-04-08T16:46:40.874Z,69.62
2023-04-08T16:49:47.766Z,69.35
2023-04-08T16:52:54.766Z,69.66
2023-04-08T16:56:01.485Z,69.65
2023-04-08T16:59:18.469Z,69.59
2023-04-08T17:02:31.892Z,69.06
2023-04-08T17:05:48.348Z,69.60
2023-04-08T17:08:56.607Z,69.54
2023-04-08T17:12:02.601Z,69.60
2023-04-08T17:15:21.838Z,69.28
2023-04-08T17:18:33.846Z,69.74
2023-04-08T17:21:42.419Z,69.33
2023-04-08T17:24:48.715Z,69.59
2023-04-08T17:27:55.490Z,69.53
2023-04-08T17:31:08.970Z,69.04
2023-04-08T17:34:16.323Z,69.46
2023-04-08T17:37:23.007Z,69.47
2023-04-08T17:40:29.914Z,69.69
2023-04-08T17:43:49.409Z,69.75
2023-04-08T17:47:01.012Z,69.68
2023-04-08T17:50:12.013Z,69.70
2023-04-08T17:53:21.073Z,70.05
2023-04-08T17:56:28.060Z,69.98
2023-04-08T17:59:35.001Z,69.59
2023-04-08T18:02:43.640Z,69.52
2023-04-08T18:05:50.781Z,69.60
2023-04-08T18:08:59.325Z,69.70
2023-04-08T18:12:06.725Z,70.06
2023-04-08T18:15:14.269Z,69.43
2023-04-08T18:18:25.424Z,70.08
2023-04-08T18:21:31.781Z,69.95
2023-04-08T18:24:38.540Z,70.15
2023-04-08T18:27:44.698Z,70.07
2023-04-08T18:30:55.115Z,69.74
2023-04-08T18:34:03.662Z,70.04
2023-04-08T18:37:11.236Z,69.85
2023-04-08T18:40:28.312Z,69.97
2023-04-08T18:43:36.572Z,70.12
2023-04-08T18:46:46.101Z,70.33
2023-04-08T18:49:56.861Z,70.40
2023-04-08T18:53:05.758Z,71.10
2023-04-08T18:56:18.810Z,71.61
2023-04-08T18:59:30.360Z,71.55
2023-04-08T19:02:37.319Z,71.29
2023-04-08T19:05:46.869Z,71.48
2023-04-08T19:08:53.750Z,71.74
2023-04-08T19:12:00.238Z,71.58
2023-04-08T19:15:11.483Z,71.70
2023-04-08T19:18:17.383Z,71.89
2023-04-08T19:21:28.398Z,71.40
2023-04-08T19:24:34.362Z,71.46
2023-04-08T19:27:47.265Z,71.56
2023-04-08T19:30:53.461Z,71.20
2023-04-08T19:34:00.364Z,71.34
2023-04-08T19:37:09.149Z,71.43
2023-04-08T19:40:16.269Z,71.33
2023-04-08T19:43:22.176Z,71.64
2023-04-08T19:46:28.996Z,71.51
2023-04-08T19:49:35.063Z,71.70
2023-04-08T19:52:44.553Z,71.27
2023-04-08T19:55:50.629Z,71.29
2023-04-08T19:59:00.281Z,70.96
2023-04-08T20:02:06.968Z,70.77
2023-04-08T20:05:17.669Z,70.99
2023-04-08T20:08:26.558Z,70.81
2023-04-08T20:11:33.589Z,70.77
2023-04-08T20:14:46.363Z,71.04
2023-04-08T20:17:53.618Z,70.89
2023-04-08T20:21:00.913Z,71.60
2023-04-08T20:24:15.303Z,72.00
2023-04-08T20:27:21.984Z,71.29
2023-04-08T20:30:28.921Z,71.17
2023-04-08T20:33:35.087Z,71.75
2023-04-08T20:36:42.978Z,71.40
2023-04-08T20:39:57.872Z,71.55
2023-04-08T20:43:06.180Z,72.15
2023-04-08T20:46:14.142Z,71.51
2023-04-08T20:49:21.400Z,71.72
2023-04-08T20:52:27.467Z,71.80
2023-04-08T20:55:41.097Z,71.48
2023-04-08T20:58:47.043Z,71.84
2023-04-08T21:01:56.795Z,71.68
2023-04-08T21:05:03.005Z,72.01
2023-04-08T21:08:12.086Z,72.36
2023-04-08T21:11:21.377Z,72.23
2023-04-08T21:14:28.070Z,72.56
2023-04-08T21:17:34.032Z,73.98
2023-04-08T21:20:46.909Z,74.42
2023-04-08T21:23:52.744Z,74.13
2023-04-08T21:27:09.893Z,74.12
2023-04-08T21:30:17.190Z,73.77
2023-04-08T21:33:24.093Z,73.70
2023-04-08T21:36:31.162Z,73.55
2023-04-08T21:39:37.882Z,73.31
2023-04-08T21:42:46.760Z,73.50
2023-04-08T21:45:53.794Z,73.42
2023-04-08T21:48:59.794Z,73.84
2023-04-08T21:52:12.918Z,73.99
2023-04-08T21:55:18.848Z,74.40
2023-04-08T21:58:28.493Z,74.32
2023-04-08T22:01:34.630Z,74.99
2023-04-08T22:04:44.999Z,75.76
2023-04-08T22:07:51.218Z,76.37
2023-04-08T22:10:57.944Z,77.04
2023-04-08T22:14:12.462Z,76.87
2023-04-08T22:17:19.296Z,76.82
2023-04-08T22:20:26.503Z,77.09
2023-04-08T22:23:38.487Z,77.59
2023-04-08T22:26:44.815Z,77.75
2023-04-08T22:29:54.183Z,78.60
2023-04-08T22:33:00.190Z,78.01
2023-04-08T22:36:08.216Z,78.46
2023-04-08T22:39:14.038Z,79.36
2023-04-08T22:42:21.054Z,79.50
2023-04-08T22:45:29.652Z,79.72
2023-04-08T22:48:36.605Z,79.80
2023-04-08T22:51:43.258Z,79.85
2023-04-08T22:54:53.149Z,80.32
2023-04-08T22:57:59.174Z,80.93
2023-04-08T23:01:25.916Z,80.79
2023-04-08T23:04:32.792Z,80.75
2023-04-08T23:07:44.346Z,80.61
2023-04-08T23:10:50.263Z,80.23
2023-04-08T23:14:03.947Z,80.16
2023-04-08T23:17:20.904Z,80.29
2023-04-08T23:20:28.258Z,80.63
2023-04-08T23:23:34.332Z,81.46
2023-04-08T23:26:41.487Z,81.48
2023-04-08T23:29:47.383Z,81.65
2023-04-08T23:32:56.739Z,82.32
2023-04-08T23:36:02.636Z,81.87
2023-04-08T23:39:16.313Z,82.06
2023-04-08T23:42:27.500Z,81.35
2023-04-08T23:45:37.362Z,82.00
2023-04-08T23:48:46.401Z,82.21
2023-04-08T23:51:53.891Z,82.42
2023-04-08T23:54:59.838Z,82.30
2023-04-08T23:58:06.798Z,82.21
